createdAt,value
2023-02-02T00:03:12.165Z,4.4
2023-02-02T00:08:18.571Z,4.4
2023-02-02T00:13:24.949Z,4.4
2023-02-02T00:18:31.319Z,4.3
2023-02-02T00:23:37.705Z,4.3
2023-02-02T00:28:44.081Z,4.3
2023-02-02T00:35:23.095Z,4.3
2023-02-02T00:38:56.966Z,4.3
2023-02-02T00:45:03.528Z,4.3
2023-02-02T00:54:16.163Z,4.2
2023-02-02T00:59:42.583Z,4.2
2023-02-02T01:04:19.021Z,4.2
2023-02-02T01:09:35.453Z,4.2
2023-02-02T01:14:41.796Z,4.2
2023-02-02T01:20:12.198Z,4.2
2023-02-02T01:25:14.591Z,4.3
2023-02-02T01:30:44.993Z,4.3
2023-02-02T01:37:55.440Z,4.3
2023-02-02T01:40:57.737Z,4.4
2023-02-02T01:45:40.147Z,4.4
2023-02-02T01:50:46.495Z,4.5
2023-02-02T01:57:04.991Z,4.5
2023-02-02T02:00:39.245Z,4.5
2023-02-02T02:06:05.788Z,4.6
2023-02-02T02:10:52.114Z,4.6
2023-02-02T02:15:58.523Z,4.6
2023-02-02T02:21:05.050Z,4.6
2023-02-02T02:26:11.571Z,4.6
2023-02-02T02:32:02.065Z,4.7
2023-02-02T02:36:44.392Z,4.7
2023-02-02T02:41:30.729Z,4.7
2023-02-02T02:46:57.168Z,4.7
2023-02-02T02:51:43.536Z,4.8
2023-02-02T02:57:03.911Z,4.8
2023-02-02T03:01:56.262Z,4.8
2023-02-02T03:08:34.949Z,4.9
2023-02-02T03:12:09.111Z,4.9
2023-02-02T03:17:35.663Z,5.0
2023-02-02T03:22:22.100Z,5.0
2023-02-02T03:27:28.512Z,5.1
2023-02-02T03:32:34.866Z,5.1
2023-02-02T03:38:05.362Z,5.1
2023-02-02T03:47:54.073Z,5.2
2023-02-02T03:53:00.462Z,5.2
2023-02-02T03:58:30.857Z,5.2
2023-02-02T04:03:13.321Z,5.2
2023-02-02T04:08:19.753Z,5.3
2023-02-02T04:15:46.407Z,5.3
2023-02-02T04:18:32.606Z,5.3
2023-02-02T04:23:38.992Z,5.4
2023-02-02T04:28:45.368Z,5.4
2023-02-02T04:33:51.765Z,5.4
2023-02-02T04:38:58.131Z,5.4
2023-02-02T04:44:04.521Z,5.4
2023-02-02T04:49:11.076Z,5.5
2023-02-02T04:54:37.472Z,5.5
2023-02-02T04:59:23.956Z,5.5
2023-02-02T05:04:50.576Z,5.5
2023-02-02T05:15:17.276Z,5.5
2023-02-02T05:20:24.683Z,5.5
2023-02-02T05:26:15.127Z,5.5
2023-02-02T05:30:37.497Z,5.5
2023-02-02T05:36:03.937Z,5.5
2023-02-02T05:42:02.556Z,5.6
2023-02-02T05:46:16.979Z,5.6
2023-02-02T05:51:23.361Z,5.6
2023-02-02T05:56:33.689Z,5.6
2023-02-02T06:01:40.060Z,5.6
2023-02-02T06:06:42.569Z,5.6
2023-02-02T06:11:48.843Z,5.6
2023-02-02T06:16:35.208Z,5.6
2023-02-02T06:21:41.704Z,5.6
2023-02-02T06:26:48.383Z,5.6
2023-02-02T06:31:55.004Z,5.6
2023-02-02T06:37:01.278Z,5.6
2023-02-02T06:42:20.319Z,5.7
2023-02-02T06:47:34.064Z,5.7
2023-02-02T06:52:40.448Z,5.7
2023-02-02T06:59:47.067Z,5.7
2023-02-02T07:02:33.175Z,5.7
2023-02-02T07:08:03.591Z,5.7
2023-02-02T07:18:16.382Z,5.7
2023-02-02T07:22:58.684Z,5.7
2023-02-02T07:28:05.051Z,5.7
2023-02-02T07:33:15.444Z,5.7
2023-02-02T07:38:17.837Z,5.6
2023-02-02T07:43:24.244Z,5.6
2023-02-02T07:48:30.601Z,5.6
2023-02-02T07:53:36.999Z,5.6
2023-02-02T07:59:03.478Z,5.6
2023-02-02T08:03:49.924Z,5.5
2023-02-02T08:09:00.029Z,5.6
2023-02-02T08:14:06.413Z,5.5
2023-02-02T08:19:12.967Z,5.5
2023-02-02T08:24:19.563Z,5.5
2023-02-02T08:29:25.903Z,5.5
2023-02-02T08:34:32.275Z,5.5
2023-02-02T08:40:02.761Z,5.5
2023-02-02T08:46:00.315Z,5.5
2023-02-02T08:51:23.615Z,5.5
2023-02-02T08:54:57.819Z,5.5
2023-02-02T09:00:28.260Z,5.5
2023-02-02T09:05:10.566Z,5.5
2023-02-02T09:10:16.981Z,5.5
2023-02-02T09:16:35.571Z,5.5
2023-02-02T09:20:29.811Z,5.5
2023-02-02T09:25:36.386Z,5.5
2023-02-02T09:30:42.986Z,5.5
2023-02-02T09:35:49.379Z,5.6
2023-02-02T09:40:55.793Z,5.5
2023-02-02T09:46:22.905Z,5.5
2023-02-02T09:51:08.527Z,5.6
2023-02-02T09:58:26.942Z,5.6
2023-02-02T10:02:05.237Z,5.6
2023-02-02T10:06:27.699Z,5.7
2023-02-02T10:12:33.063Z,5.7
2023-02-02T10:18:35.519Z,5.8
2023-02-02T10:23:18.982Z,5.8
2023-02-02T10:28:49.350Z,5.8
2023-02-02T10:33:11.695Z,5.8
2023-02-02T10:39:02.143Z,5.8
2023-02-02T10:43:44.532Z,5.9
2023-02-02T10:58:43.895Z,5.9
2023-02-02T11:03:50.242Z,5.9
2023-02-02T11:14:03.035Z,5.9
2023-02-02T11:24:15.809Z,5.9
2023-02-02T11:29:22.207Z,6.0
2023-02-02T11:34:28.616Z,6.0
2023-02-02T11:39:35.036Z,6.0
2023-02-02T11:44:41.490Z,6.1
2023-02-02T11:49:47.931Z,6.1
2023-02-02T11:54:54.380Z,6.1
2023-02-02T12:00:00.726Z,6.1
2023-02-02T12:05:07.241Z,6.1
2023-02-02T12:10:13.682Z,6.2
2023-02-02T12:15:20.089Z,6.2
2023-02-02T12:20:26.922Z,6.2
2023-02-02T12:25:32.833Z,6.2
2023-02-02T12:30:39.389Z,6.2
2023-02-02T12:36:09.857Z,6.2
2023-02-02T12:41:16.348Z,6.2
2023-02-02T12:45:58.832Z,6.2
2023-02-02T12:51:05.068Z,6.2
2023-02-02T12:56:11.463Z,6.2
2023-02-02T13:01:37.890Z,6.2
2023-02-02T13:06:24.213Z,6.2
2023-02-02T13:11:50.804Z,6.3
2023-02-02T13:16:37.409Z,6.2
2023-02-02T13:21:43.755Z,6.3
2023-02-02T13:26:50.209Z,6.2
2023-02-02T13:32:20.493Z,6.3
2023-02-02T13:37:02.874Z,6.3
2023-02-02T13:42:09.429Z,6.3
2023-02-02T13:47:15.906Z,6.3
2023-02-02T13:52:22.444Z,6.3
2023-02-02T13:57:28.817Z,6.3
2023-02-02T14:02:35.392Z,6.3
2023-02-02T14:07:42.058Z,6.4
2023-02-02T14:12:48.028Z,6.3
2023-02-02T14:18:18.475Z,6.3
2023-02-02T14:23:00.830Z,6.4
2023-02-02T14:28:07.304Z,6.4
2023-02-02T14:33:13.703Z,6.5
2023-02-02T14:38:20.103Z,6.5
2023-02-02T14:43:46.503Z,6.5
2023-02-02T14:48:32.867Z,6.6
2023-02-02T14:53:39.272Z,6.7
2023-02-02T14:58:45.619Z,6.7
2023-02-02T15:03:55.706Z,6.7
2023-02-02T15:09:05.799Z,6.8
2023-02-02T15:14:12.149Z,6.9
2023-02-02T15:19:18.541Z,6.9
2023-02-02T15:24:24.939Z,6.9
2023-02-02T15:29:31.318Z,6.9
2023-02-02T15:34:37.721Z,7.0
2023-02-02T15:39:44.202Z,7.0
2023-02-02T15:45:35.161Z,7.0
2023-02-02T15:50:21.116Z,7.0
2023-02-02T15:55:03.524Z,7.0
2023-02-02T16:00:09.823Z,7.1
2023-02-02T16:05:40.247Z,7.1
2023-02-02T16:10:22.594Z,7.0
2023-02-02T16:20:35.359Z,7.1
2023-02-02T16:25:41.879Z,7.1
2023-02-02T16:35:56.796Z,7.1
2023-02-02T16:41:03.285Z,7.1
2023-02-02T16:46:13.703Z,7.1
2023-02-02T16:51:16.082Z,7.1
2023-02-02T16:56:42.467Z,7.1
2023-02-02T17:01:28.796Z,7.1
2023-02-02T17:16:49.068Z,7.1
2023-02-02T17:21:58.945Z,7.1
2023-02-02T17:27:05.430Z,7.1
2023-02-02T17:32:11.847Z,7.1
2023-02-02T17:37:18.203Z,7.1
2023-02-02T17:42:44.624Z,7.1
2023-02-02T17:47:55.035Z,7.2
2023-02-02T17:52:57.395Z,7.1
2023-02-02T18:02:50.280Z,7.2
2023-02-02T18:09:08.796Z,7.2
2023-02-02T18:13:03.003Z,7.2
2023-02-02T18:18:09.407Z,7.2
2023-02-02T18:23:15.778Z,7.2
2023-02-02T18:28:46.232Z,7.2
2023-02-02T18:33:53.773Z,7.2
2023-02-02T18:38:37.310Z,7.2
2023-02-02T18:44:07.776Z,7.2
2023-02-02T18:54:20.489Z,7.3
2023-02-02T18:59:01.989Z,7.3
2023-02-02T19:01:33.308Z,7.2
2023-02-02T19:04:08.431Z,7.3
2023-02-02T19:09:16.945Z,7.3
2023-02-02T19:14:43.397Z,7.3
2023-02-02T19:19:29.741Z,7.3
2023-02-02T19:24:36.122Z,7.3
2023-02-02T19:29:42.513Z,7.3
2023-02-02T19:35:43.022Z,7.4
2023-02-02T19:40:30.383Z,7.4
2023-02-02T19:46:36.965Z,7.4
2023-02-02T19:51:27.320Z,7.4
2023-02-02T19:56:09.817Z,7.4
2023-02-02T20:01:16.361Z,7.4
2023-02-02T20:06:58.973Z,7.4
2023-02-02T20:11:35.407Z,7.4
2023-02-02T20:18:37.944Z,7.4
2023-02-02T20:21:24.078Z,7.4
2023-02-02T20:31:36.888Z,7.4
2023-02-02T20:36:42.211Z,7.4
2023-02-02T20:38:54.451Z,7.4
2023-02-02T20:41:49.627Z,7.4
2023-02-02T20:46:56.033Z,7.4
2023-02-02T20:52:02.409Z,7.4
2023-02-02T20:57:32.832Z,7.4
2023-02-02T21:02:15.313Z,7.4
2023-02-02T21:07:41.714Z,7.4
2023-02-02T21:12:28.150Z,7.4
2023-02-02T21:18:47.533Z,7.4
2023-02-02T21:22:41.113Z,7.4
2023-02-02T21:27:47.521Z,7.4
2023-02-02T21:33:17.956Z,7.5
2023-02-02T21:38:00.331Z,7.5
2023-02-02T21:43:30.772Z,7.4
2023-02-02T21:58:26.247Z,7.5
2023-02-02T22:03:52.668Z,7.5
2023-02-02T22:08:39.975Z,7.5
2023-02-02T22:13:46.242Z,7.5
2023-02-02T22:18:52.633Z,7.5
2023-02-02T22:23:59.025Z,7.5
2023-02-02T22:29:05.577Z,7.5
2023-02-02T22:34:12.036Z,7.5
2023-02-02T22:39:18.460Z,7.5
2023-02-02T22:44:24.813Z,7.5
2023-02-02T22:49:31.192Z,7.5
2023-02-02T22:54:57.702Z,7.5
2023-02-02T22:59:33.973Z,7.5
2023-02-02T23:04:54.370Z,7.6
2023-02-02T23:09:57.871Z,7.5
2023-02-02T23:15:28.320Z,7.5
2023-02-02T23:20:10.660Z,7.5
2023-02-02T23:25:17.050Z,7.6
2023-02-02T23:30:23.441Z,7.6
2023-02-02T23:35:53.965Z,7.5
2023-02-02T23:40:56.275Z,7.6
2023-02-02T23:47:14.917Z,7.6
2023-02-02T23:51:09.340Z,7.6
2023-02-02T23:56:15.713Z,7.6
